Time;durP1;ratioP1;P1;durP2;ratioP2;P2;SDS_P1;SDS_P2;PMS_P1;PMS_P2;Temp;Humidity;BMP_temperature;BMP_pressure;BME280_temperature;BME280_humidity;BME280_pressure;Samples;Min_cycle;Max_cycle;Signal;HPM_P1;HPM_P2
2022/06/13 00:00:56;;;;;;;1999.90;999.90;;;11.80;99.90;;;;;;5074425;28;20047;-76
2022/06/13 00:03:22;;;;;;;1999.90;999.90;;;11.70;99.90;;;;;;5095425;28;20038;-76
2022/06/13 00:05:48;;;;;;;1999.90;999.90;;;11.70;99.90;;;;;;5091808;28;20032;-76
2022/06/13 00:08:14;;;;;;;1999.90;999.90;;;11.70;99.90;;;;;;5088453;28;20152;-76
2022/06/13 00:10:39;;;;;;;1999.90;999.90;;;11.70;99.90;;;;;;5073027;28;20043;-76
2022/06/13 00:13:05;;;;;;;1999.90;999.90;;;11.60;99.90;;;;;;5091371;28;20035;-76
2022/06/13 00:15:31;;;;;;;1999.90;999.90;;;11.60;99.90;;;;;;5062100;28;20048;-76
2022/06/13 00:17:57;;;;;;;1999.90;999.90;;;11.60;99.90;;;;;;5090342;28;20040;-76
2022/06/13 00:20:22;;;;;;;1999.90;999.90;;;11.60;99.90;;;;;;5076641;28;20031;-76
2022/06/13 00:22:48;;;;;;;1999.90;999.90;;;11.60;99.90;;;;;;5078840;28;20143;-76
2022/06/13 00:25:14;;;;;;;1999.90;999.90;;;11.60;99.90;;;;;;5081605;28;20056;-76
2022/06/13 00:27:39;;;;;;;1999.90;999.90;;;11.50;99.90;;;;;;5088060;28;20413;-76
2022/06/13 00:30:07;;;;;;;1999.90;999.90;;;11.50;99.90;;;;;;5091235;28;20043;-76
2022/06/13 00:32:33;;;;;;;1999.90;999.90;;;11.50;99.90;;;;;;5091385;28;20461;-76
2022/06/13 00:34:59;;;;;;;1999.90;999.90;;;11.60;99.90;;;;;;5082398;28;20052;-76
2022/06/13 00:37:24;;;;;;;1999.90;999.90;;;11.60;99.90;;;;;;5084353;28;20558;-76
2022/06/13 00:39:50;;;;;;;1999.90;999.90;;;11.60;99.90;;;;;;5086866;28;20043;-76
2022/06/13 00:42:19;;;;;;;1999.90;999.90;;;11.70;99.90;;;;;;5099110;28;20036;-76
2022/06/13 00:45:11;;;;;;;1999.90;999.90;;;11.70;99.90;;;;;;5090136;28;20482;-76
2022/06/13 00:47:38;;;;;;;1999.90;999.90;;;11.80;99.90;;;;;;5071997;28;20048;-76
2022/06/13 00:50:07;;;;;;;1999.90;999.90;;;11.80;99.90;;;;;;5088630;28;20123;-76
2022/06/13 00:53:11;;;;;;;1999.90;999.90;;;11.90;99.90;;;;;;5089248;28;20131;-76
2022/06/13 00:55:46;;;;;;;1999.90;999.90;;;11.90;99.90;;;;;;5089013;28;20043;-76
2022/06/13 00:58:12;;;;;;;1999.90;999.90;;;12.00;99.90;;;;;;5085210;28;20040;-76
2022/06/13 01:00:40;;;;;;;1999.90;999.90;;;12.00;99.90;;;;;;5090040;28;20047;-76
2022/06/13 01:03:06;;;;;;;1999.90;999.90;;;12.00;99.90;;;;;;5072979;28;20119;-76
2022/06/13 01:05:39;;;;;;;1999.90;999.90;;;12.00;99.90;;;;;;5073766;28;20370;-76
2022/06/13 01:08:06;;;;;;;;;;;12.00;99.90;;;;;;5084352;28;20421;-76
2022/06/13 01:13:19;;;;;;;1999.90;999.90;;;12.00;99.90;;;;;;5084981;28;20071;-76
2022/06/13 01:15:51;;;;;;;1999.90;999.90;;;12.00;99.90;;;;;;5091925;28;20050;-76
2022/06/13 01:18:52;;;;;;;1999.90;999.90;;;12.00;99.90;;;;;;5096544;28;20044;-76
2022/06/13 01:21:54;;;;;;;1999.90;999.90;;;12.00;99.90;;;;;;5073102;28;20028;-76
2022/06/13 01:24:37;;;;;;;1999.90;999.90;;;12.00;99.90;;;;;;5090190;28;20493;-76
2022/06/13 01:27:40;;;;;;;1999.90;999.90;;;11.90;99.90;;;;;;5078083;28;20551;-76
2022/06/13 01:30:25;;;;;;;1999.90;999.90;;;11.90;99.90;;;;;;5083527;28;20058;-76
2022/06/13 01:33:07;;;;;;;1999.90;999.90;;;11.80;99.90;;;;;;5089359;28;20045;-76
2022/06/13 01:36:01;;;;;;;1999.90;999.90;;;11.80;99.90;;;;;;5084663;28;20035;-76
2022/06/13 01:38:38;;;;;;;1999.90;999.90;;;11.80;99.90;;;;;;5077301;28;20047;-76
2022/06/13 01:41:12;;;;;;;1999.90;999.90;;;11.80;99.90;;;;;;5070960;28;20536;-76
2022/06/13 01:44:11;;;;;;;1999.90;999.90;;;11.80;99.90;;;;;;5086433;28;20036;-76
2022/06/13 01:47:23;;;;;;;1999.90;999.90;;;11.80;99.90;;;;;;5053618;28;20457;-76
2022/06/13 01:50:10;;;;;;;1999.90;999.90;;;11.80;99.90;;;;;;5007397;28;20047;-76
2022/06/13 01:52:45;;;;;;;1999.90;999.90;;;11.70;99.90;;;;;;5088748;28;20059;-76
2022/06/13 01:55:25;;;;;;;1999.90;999.90;;;11.70;99.90;;;;;;5070546;28;20127;-76
2022/06/13 01:58:02;;;;;;;1999.90;999.90;;;11.70;99.90;;;;;;5089268;28;20056;-76
2022/06/13 02:00:31;;;;;;;1999.90;999.90;;;11.70;99.90;;;;;;5085320;28;20067;-76
2022/06/13 02:03:02;;;;;;;1999.90;999.90;;;11.60;99.90;;;;;;5089018;28;20052;-76
2022/06/13 02:05:48;;;;;;;1999.90;999.90;;;11.70;99.90;;;;;;5079992;28;20032;-76
2022/06/13 02:08:20;;;;;;;1999.90;999.90;;;11.70;99.90;;;;;;5070759;28;20087;-76
2022/06/13 02:10:53;;;;;;;1999.90;999.90;;;11.70;99.90;;;;;;5082204;28;20082;-76
2022/06/13 02:13:22;;;;;;;;;;;11.80;99.90;;;;;;5084617;28;20118;-76
2022/06/13 02:15:54;;;;;;;1999.90;999.90;;;11.80;99.90;;;;;;5089329;28;19919;-76
2022/06/13 02:18:32;;;;;;;1999.90;999.90;;;11.80;99.90;;;;;;5084908;28;20097;-76
2022/06/13 02:21:06;;;;;;;1999.90;999.90;;;11.90;99.90;;;;;;5074301;28;20045;-76
2022/06/13 02:23:38;;;;;;;1999.90;999.90;;;11.90;99.90;;;;;;5073965;28;20518;-76
2022/06/13 02:26:09;;;;;;;1999.90;999.90;;;12.00;99.90;;;;;;5088847;28;20066;-76
2022/06/13 02:28:43;;;;;;;1999.90;999.90;;;12.00;99.90;;;;;;5098639;28;20040;-76
2022/06/13 02:31:17;;;;;;;1999.90;999.90;;;12.00;99.90;;;;;;5070401;28;20048;-76
2022/06/13 02:33:51;;;;;;;1999.90;999.90;;;12.10;99.90;;;;;;5088925;28;20111;-76
2022/06/13 02:36:24;;;;;;;1999.90;999.90;;;12.20;99.90;;;;;;5088457;28;20475;-76
2022/06/13 02:39:09;;;;;;;1999.90;999.90;;;12.20;99.90;;;;;;5072198;28;20540;-76
2022/06/13 02:41:50;;;;;;;1999.90;999.90;;;12.20;99.90;;;;;;5075739;28;20116;-76
2022/06/13 02:44:31;;;;;;;1999.90;999.90;;;12.30;99.90;;;;;;5076593;28;20050;-76
2022/06/13 02:47:04;;;;;;;1999.90;999.90;;;12.30;99.90;;;;;;5081679;28;20043;-76
2022/06/13 02:49:51;;;;;;;1999.90;999.90;;;12.40;99.90;;;;;;5065311;28;20109;-76
2022/06/13 02:52:20;;;;;;;1999.90;999.90;;;12.40;99.90;;;;;;5078173;28;20474;-76
2022/06/13 02:54:48;;;;;;;1999.90;999.90;;;12.40;99.90;;;;;;5085639;28;20136;-76
2022/06/13 02:57:42;;;;;;;1999.90;999.90;;;12.50;99.90;;;;;;5082217;28;20044;-76
2022/06/13 03:00:19;;;;;;;1999.90;999.90;;;12.40;99.90;;;;;;5082762;28;20048;-76
2022/06/13 03:03:04;;;;;;;1999.90;999.90;;;12.50;99.90;;;;;;5082587;28;20048;-76
2022/06/13 03:05:38;;;;;;;1999.90;999.90;;;12.50;99.90;;;;;;5088226;28;20111;-76
2022/06/13 03:08:16;;;;;;;1999.90;999.90;;;12.50;99.90;;;;;;5088436;28;20119;-76
2022/06/13 03:11:16;;;;;;;1999.90;999.90;;;12.50;99.90;;;;;;5086268;28;20047;-76
2022/06/13 03:13:57;;;;;;;1999.90;999.90;;;12.50;99.90;;;;;;5068686;28;20052;-76
2022/06/13 03:16:47;;;;;;;1999.90;999.90;;;12.50;99.90;;;;;;5064701;28;20048;-76
2022/06/13 03:19:20;;;;;;;1999.90;999.90;;;12.50;99.90;;;;;;5089021;28;20092;-76
2022/06/13 03:21:47;;;;;;;;;;;12.50;99.90;;;;;;5092518;28;20047;-76
2022/06/13 03:24:24;;;;;;;1999.90;999.90;;;12.50;99.90;;;;;;5097155;28;19923;-76
2022/06/13 03:26:58;;;;;;;1999.90;999.90;;;12.50;99.90;;;;;;5082620;28;20047;-76
2022/06/13 03:29:34;;;;;;;1999.90;999.90;;;12.50;99.90;;;;;;5080890;28;20044;-77
2022/06/13 03:32:12;;;;;;;1999.90;999.90;;;12.50;99.90;;;;;;5091823;28;20378;-76
2022/06/13 03:34:42;;;;;;;1999.90;999.90;;;12.50;99.90;;;;;;5083674;28;20048;-76
2022/06/13 03:37:42;;;;;;;1999.90;999.90;;;12.50;99.90;;;;;;5083563;28;20044;-76
2022/06/13 03:40:13;;;;;;;1999.90;999.90;;;12.50;99.90;;;;;;5066424;28;20060;-76
2022/06/13 03:43:01;;;;;;;1999.90;999.90;;;12.40;99.90;;;;;;5092084;28;20075;-76
2022/06/13 03:45:37;;;;;;;1999.90;999.90;;;12.40;99.90;;;;;;5078126;28;20047;-76
2022/06/13 03:48:12;;;;;;;1999.90;999.90;;;12.40;99.90;;;;;;5075589;28;20040;-76
2022/06/13 03:51:01;;;;;;;1999.90;999.90;;;12.40;99.90;;;;;;5082242;28;20110;-76
2022/06/13 03:53:37;;;;;;;1999.90;999.90;;;12.40;99.90;;;;;;5065454;28;20048;-76
2022/06/13 03:56:12;;;;;;;1999.90;999.90;;;12.50;99.90;;;;;;5090512;28;20067;-76
2022/06/13 03:58:49;;;;;;;1999.90;999.90;;;12.50;99.90;;;;;;5088965;28;20043;-76
2022/06/13 04:01:23;;;;;;;1999.90;999.90;;;12.50;99.90;;;;;;5077586;28;20044;-76
2022/06/13 04:03:48;;;;;;;1999.90;999.90;;;12.60;99.90;;;;;;5081323;28;20047;-76
2022/06/13 04:06:37;;;;;;;1999.90;999.90;;;12.60;99.90;;;;;;5074081;28;20040;-76
2022/06/13 04:09:25;;;;;;;1999.90;999.90;;;12.70;99.90;;;;;;5061714;28;20079;-76
2022/06/13 04:11:50;;;;;;;1999.90;999.90;;;12.70;99.90;;;;;;5091481;28;20048;-76
2022/06/13 04:14:53;;;;;;;1999.90;999.90;;;12.70;99.90;;;;;;5083932;28;20563;-76
2022/06/13 04:18:00;;;;;;;1999.90;999.90;;;12.80;99.90;;;;;;5086248;28;20032;-76
2022/06/13 04:20:42;;;;;;;1999.90;999.90;;;12.80;99.90;;;;;;5071533;28;20047;-76
2022/06/13 04:23:25;;;;;;;1999.90;999.90;;;12.90;99.90;;;;;;5081762;28;20044;-76
2022/06/13 04:25:57;;;;;;;1999.90;999.90;;;13.00;99.90;;;;;;5090863;28;20047;-76
2022/06/13 04:28:35;;;;;;;1999.90;999.90;;;13.00;99.90;;;;;;5085055;28;20501;-76
2022/06/13 04:31:04;;;;;;;1999.90;999.90;;;13.10;99.90;;;;;;5088686;28;20047;-76
2022/06/13 04:33:43;;;;;;;1999.90;999.90;;;13.20;99.90;;;;;;5079394;28;20131;-76
2022/06/13 04:36:11;;;;;;;1999.90;999.90;;;13.40;99.90;;;;;;5084925;28;20497;-76
2022/06/13 04:38:41;;;;;;;1999.90;999.90;;;13.60;99.90;;;;;;5072491;28;20578;-76
2022/06/13 04:41:09;;;;;;;1999.90;999.90;;;13.90;99.90;;;;;;5055250;28;20062;-76
2022/06/13 04:43:42;;;;;;;1999.90;999.90;;;13.90;99.90;;;;;;5082928;28;20062;-76
2022/06/13 04:46:10;;;;;;;;;;;13.90;99.90;;;;;;5092593;28;20117;-76
2022/06/13 04:48:40;;;;;;;1999.90;999.90;;;13.90;99.90;;;;;;5056459;28;19921;-77
2022/06/13 04:51:11;;;;;;;1999.90;999.90;;;14.00;99.90;;;;;;5076965;28;20546;-76
2022/06/13 04:54:00;;;;;;;1999.90;999.90;;;13.90;99.90;;;;;;5073524;28;20138;-77
2022/06/13 04:56:27;;;;;;;1999.90;999.90;;;13.90;99.90;;;;;;5090633;28;20055;-77
2022/06/13 04:58:55;;;;;;;1999.90;999.90;;;13.80;99.90;;;;;;5070232;28;20129;-77
2022/06/13 05:01:43;;;;;;;1999.90;999.90;;;13.80;99.90;;;;;;5090247;28;20096;-78
2022/06/13 05:04:16;;;;;;;1999.90;999.90;;;13.60;99.90;;;;;;5091115;28;20402;-77
2022/06/13 05:06:58;;;;;;;1999.90;999.90;;;13.40;99.90;;;;;;5065581;28;20043;-77
2022/06/13 05:09:31;;;;;;;1999.90;999.90;;;13.20;99.90;;;;;;5090863;28;20050;-78
2022/06/13 05:12:15;;;;;;;1999.90;999.90;;;13.00;99.90;;;;;;5080996;28;20055;-77
2022/06/13 05:14:45;;;;;;;1999.90;999.90;;;12.90;99.90;;;;;;5071716;28;20064;-77
2022/06/13 05:17:47;;;;;;;1999.90;999.90;;;12.80;99.90;;;;;;5089876;28;20047;-77
2022/06/13 05:20:37;;;;;;;1999.90;999.90;;;12.90;99.90;;;;;;5089113;28;20127;-77
2022/06/13 05:23:44;;;;;;;1999.90;999.90;;;13.00;99.90;;;;;;5078971;28;20040;-77
2022/06/13 05:26:10;;;;;;;1999.90;999.90;;;13.00;99.90;;;;;;5055888;28;20059;-77
2022/06/13 05:28:36;;;;;;;1999.90;999.90;;;13.00;99.90;;;;;;5072786;28;20052;-77
2022/06/13 05:31:18;;;;;;;1999.90;999.90;;;12.90;99.90;;;;;;5089123;28;20489;-77
2022/06/13 05:33:46;;;;;;;1999.90;999.90;;;12.80;99.90;;;;;;5070215;28;20056;-77
2022/06/13 05:36:16;;;;;;;1999.90;999.90;;;12.90;99.90;;;;;;5090463;28;20044;-78
2022/06/13 05:38:46;;;;;;;1999.90;999.90;;;13.00;99.90;;;;;;5084959;28;20493;-78
2022/06/13 05:41:12;;;;;;;1999.90;999.90;;;13.20;99.90;;;;;;5079345;28;20390;-77
2022/06/13 05:43:38;;;;;;;1999.90;999.90;;;13.30;99.90;;;;;;5081030;28;20037;-77
2022/06/13 05:46:05;;;;;;;1999.90;999.90;;;13.40;99.90;;;;;;5086581;28;20139;-77
2022/06/13 05:48:31;;;;;;;1999.90;999.90;;;13.60;99.90;;;;;;5089815;28;20120;-77
2022/06/13 05:50:57;;;;;;;1999.90;999.90;;;13.90;99.90;;;;;;5074056;28;20044;-78
2022/06/13 05:53:25;;;;;;;1999.90;999.90;;;14.00;99.90;;;;;;5096467;28;20032;-78
2022/06/13 05:55:55;;;;;;;1999.90;999.90;;;14.10;99.90;;;;;;5093382;28;20074;-78
2022/06/13 05:58:21;;;;;;;1999.90;999.90;;;14.20;99.90;;;;;;5081686;28;20075;-78
2022/06/13 06:00:58;;;;;;;1999.90;999.90;;;14.60;99.90;;;;;;5066601;28;20036;-78
2022/06/13 06:03:25;;;;;;;1999.90;999.90;;;15.30;99.90;;;;;;5087255;28;20032;-78
2022/06/13 06:05:52;;;;;;;1999.90;999.90;;;15.90;99.90;;;;;;5083953;28;20389;-78
2022/06/13 06:08:20;;;;;;;1999.90;999.90;;;16.40;99.90;;;;;;5089283;28;20044;-78
2022/06/13 06:10:47;;;;;;;1999.90;999.90;;;16.60;99.90;;;;;;5064690;28;20077;-78
2022/06/13 06:13:14;;;;;;;1999.90;999.90;;;16.50;99.90;;;;;;5055625;28;20058;-78
2022/06/13 06:15:41;;;;;;;1999.90;999.90;;;16.30;99.90;;;;;;5052860;28;20145;-78
2022/06/13 06:18:07;;;;;;;1999.90;999.90;;;16.80;99.90;;;;;;5066172;28;20409;-78
2022/06/13 06:20:34;;;;;;;1999.90;999.90;;;17.90;99.90;;;;;;5089000;28;20438;-78
2022/06/13 06:23:00;;;;;;;1999.90;999.90;;;18.80;99.90;;;;;;5088202;28;20079;-78
2022/06/13 06:25:26;;;;;;;1999.90;999.90;;;18.80;99.90;;;;;;5070542;28;20528;-78
2022/06/13 06:27:51;;;;;;;1999.90;999.90;;;18.50;99.90;;;;;;5070555;28;20150;-78
2022/06/13 06:30:17;;;;;;;1999.90;999.90;;;18.30;99.90;;;;;;5050691;28;20040;-77
2022/06/13 06:32:45;;;;;;;1999.90;999.90;;;18.00;99.90;;;;;;5089256;28;20047;-78
2022/06/13 06:35:11;;;;;;;1999.90;999.90;;;17.60;99.90;;;;;;5082891;28;20669;-78
2022/06/13 06:37:47;;;;;;;1999.90;999.90;;;17.60;99.90;;;;;;5088432;28;20043;-78
2022/06/13 06:40:15;;;;;;;1999.90;999.90;;;18.00;99.90;;;;;;5064649;28;20535;-78
2022/06/13 06:42:41;;;;;;;1999.90;999.90;;;18.20;99.90;;;;;;5069843;28;20035;-78
2022/06/13 06:45:08;;;;;;;1999.90;999.90;;;17.90;99.90;;;;;;5089185;28;20047;-78
2022/06/13 06:47:35;;;;;;;1999.90;999.90;;;17.60;99.90;;;;;;5088598;28;20059;-78
2022/06/13 06:50:01;;;;;;;1999.90;999.90;;;17.40;99.90;;;;;;5074164;28;20036;-78
2022/06/13 06:52:26;;;;;;;1999.90;999.90;;;18.20;99.90;;;;;;5088633;28;20577;-77
2022/06/13 07:00:21;;;;;;;1999.90;999.90;;;19.00;99.90;;;;;;5081253;28;20036;-78
2022/06/13 07:02:47;;;;;;;1999.90;999.90;;;18.60;99.90;;;;;;5088672;28;20043;-77
2022/06/13 07:05:13;;;;;;;1999.90;999.90;;;18.10;99.90;;;;;;5088679;28;20032;-77
2022/06/13 07:07:39;;;;;;;1999.90;999.90;;;17.50;99.90;;;;;;5082929;28;20051;-76
2022/06/13 07:10:07;;;;;;;1999.90;999.90;;;16.70;99.90;;;;;;5084346;28;20480;-78
2022/06/13 07:12:33;;;;;;;1999.90;999.90;;;16.10;99.90;;;;;;5077121;28;20400;-78
2022/06/13 07:14:58;;;;;;;1999.90;999.90;;;15.60;99.90;;;;;;5088378;28;20111;-78
2022/06/13 07:17:26;;;;;;;1999.90;999.90;;;15.50;99.90;;;;;;5088300;28;20048;-78
2022/06/13 07:19:51;;;;;;;1999.90;999.90;;;16.40;99.90;;;;;;5068953;28;20051;-78
2022/06/13 07:22:20;;;;;;;1999.90;999.90;;;17.80;99.90;;;;;;5088865;28;20035;-78
2022/06/13 07:24:46;;;;;;;1999.90;999.90;;;19.00;99.90;;;;;;5088393;28;20052;-78
2022/06/13 07:27:13;;;;;;;1999.90;999.90;;;19.60;99.90;;;;;;5047864;28;20120;-78
2022/06/13 07:29:38;;;;;;;1999.90;999.90;;;18.90;99.90;;;;;;5072011;28;20134;-77
2022/06/13 07:32:13;;;;;;;1999.90;999.90;;;18.10;99.90;;;;;;5071685;28;20755;-78
2022/06/13 07:34:40;;;;;;;1999.90;999.90;;;17.20;99.90;;;;;;5088398;28;20444;-78
2022/06/13 07:37:09;;;;;;;1999.90;999.90;;;16.50;99.90;;;;;;5069072;28;20147;-77
2022/06/13 07:39:35;;;;;;;1999.90;999.90;;;16.10;99.90;;;;;;5075372;28;20052;-78
2022/06/13 07:42:01;;;;;;;1999.90;999.90;;;16.60;99.90;;;;;;5088445;28;20085;-78
2022/06/13 07:44:32;;;;;;;1999.90;999.90;;;17.50;99.90;;;;;;5083977;28;20401;-79
2022/06/13 07:46:58;;;;;;;1999.90;999.90;;;18.30;99.90;;;;;;5070481;28;20036;-78
2022/06/13 07:49:24;;;;;;;1999.90;999.90;;;19.10;99.90;;;;;;5086048;28;20046;-78
2022/06/13 07:51:50;;;;;;;1999.90;999.90;;;19.10;99.90;;;;;;5088311;28;20040;-78
2022/06/13 07:54:15;;;;;;;1999.90;999.90;;;18.40;99.90;;;;;;5084170;28;20072;-78
2022/06/13 07:56:43;;;;;;;1999.90;999.90;;;17.40;99.90;;;;;;5060124;28;20075;-77
2022/06/13 07:59:20;;;;;;;1999.90;999.90;;;16.70;99.90;;;;;;5076923;28;21067;-77
2022/06/13 08:01:46;;;;;;;1999.90;999.90;;;16.00;99.90;;;;;;5085698;28;20567;-78
2022/06/13 08:04:12;;;;;;;1999.90;999.90;;;15.70;99.90;;;;;;5077268;28;20036;-77
2022/06/13 08:06:42;;;;;;;1999.90;999.90;;;16.10;99.90;;;;;;5061367;28;20481;-78
2022/06/13 08:09:08;;;;;;;1999.90;999.90;;;17.00;99.90;;;;;;5070011;28;20481;-77
2022/06/13 08:11:37;;;;;;;1999.90;999.90;;;17.90;99.90;;;;;;5085984;28;20464;-78
2022/06/13 08:14:06;;;;;;;1999.90;999.90;;;18.60;99.90;;;;;;5079023;28;20115;-78
2022/06/13 08:16:34;;;;;;;1999.90;999.90;;;18.70;99.90;;;;;;5080535;28;20362;-78
2022/06/13 08:19:02;;;;;;;1999.90;999.90;;;19.10;99.90;;;;;;5086089;28;20056;-78
2022/06/13 08:21:28;;;;;;;1999.90;999.90;;;19.40;99.90;;;;;;5065004;28;20080;-77
2022/06/13 08:23:53;;;;;;;1999.90;999.90;;;19.70;99.90;;;;;;5058998;28;20503;-78
2022/06/13 08:26:19;;;;;;;1999.90;999.90;;;20.10;99.60;;;;;;5067451;28;20097;-78
2022/06/13 08:28:44;;;;;;;1999.90;999.90;;;19.70;99.40;;;;;;5083085;28;20055;-79
2022/06/13 08:31:12;;;;;;;1999.90;999.90;;;19.70;99.90;;;;;;5052039;28;20135;-78
2022/06/13 08:33:39;;;;;;;1999.90;999.90;;;19.70;99.90;;;;;;5077349;28;20042;-76
2022/06/13 08:36:06;;;;;;;1999.90;999.90;;;20.00;97.40;;;;;;5078214;28;20405;-77
2022/06/13 08:38:32;;;;;;;1999.90;999.90;;;20.10;98.30;;;;;;5064477;28;20048;-78
2022/06/13 08:41:18;;;;;;;1999.90;999.90;;;20.10;96.50;;;;;;5085721;28;20116;-75
2022/06/13 08:43:54;;;;;;;1999.90;999.90;;;19.60;95.70;;;;;;5082371;28;20072;-78
2022/06/13 08:46:28;;;;;;;1999.90;999.90;;;18.90;97.00;;;;;;5078026;28;20497;-77
2022/06/13 08:49:12;;;;;;;1999.90;999.90;;;19.00;98.30;;;;;;5084436;28;20071;-76
2022/06/13 08:51:45;;;;;;;1999.90;999.90;;;19.40;97.20;;;;;;5061971;28;20045;-76
2022/06/13 08:54:18;;;;;;;1999.90;999.90;;;19.50;96.10;;;;;;5077680;28;20047;-77
2022/06/13 08:56:45;;;;;;;1999.90;999.90;;;19.50;96.50;;;;;;5085517;28;20285;-77
2022/06/13 08:59:27;;;;;;;1999.90;999.90;;;19.80;96.10;;;;;;5081364;28;20044;-77
2022/06/13 09:01:53;;;;;;;1999.90;999.90;;;20.20;97.30;;;;;;5079098;28;20042;-77
2022/06/13 09:04:32;;;;;;;1999.90;999.90;;;20.60;96.10;;;;;;5061659;28;20052;-77
2022/06/13 09:07:51;;;;;;;1999.90;999.90;;;20.20;94.60;;;;;;5075046;28;20074;-77
2022/06/13 09:10:21;;;;;;;1999.90;999.90;;;19.60;94.80;;;;;;4988194;28;20137;-78
2022/06/13 09:12:56;;;;;;;1999.90;999.90;;;19.20;92.50;;;;;;4973762;28;20134;-78
2022/06/13 09:15:30;;;;;;;1999.90;999.90;;;18.90;93.60;;;;;;4979890;28;20046;-78
2022/06/13 09:18:19;;;;;;;1999.90;999.90;;;19.10;95.80;;;;;;4984112;28;20104;-77
2022/06/13 09:20:53;;;;;;;1999.90;999.90;;;18.90;99.90;;;;;;4983854;28;20058;-78
2022/06/13 09:24:03;;;;;;;1999.90;999.90;;;17.90;99.90;;;;;;4947266;28;20050;-76
2022/06/13 09:26:35;;;;;;;1999.90;999.90;;;17.00;99.90;;;;;;4953960;28;20081;-78
2022/06/13 09:29:08;;;;;;;1999.90;999.90;;;16.60;99.90;;;;;;4979181;28;20509;-78
2022/06/13 09:31:36;;;;;;;1999.90;999.90;;;16.70;99.90;;;;;;4981922;28;20046;-78
2022/06/13 09:34:21;;;;;;;1999.90;999.90;;;17.20;99.90;;;;;;4982337;28;20407;-78
2022/06/13 09:37:10;;;;;;;1999.90;999.90;;;17.60;99.90;;;;;;4981058;28;20500;-78
2022/06/13 09:39:37;;;;;;;1999.90;999.90;;;17.50;99.90;;;;;;4982249;28;20058;-78
2022/06/13 09:42:16;;;;;;;1999.90;999.90;;;17.10;99.90;;;;;;4980751;28;20094;-77
2022/06/13 09:45:00;;;;;;;1999.90;999.90;;;16.70;99.90;;;;;;4981259;28;20056;-78
2022/06/13 09:48:02;;;;;;;1999.90;999.90;;;16.60;99.90;;;;;;5059173;28;20047;-78
2022/06/13 09:50:51;;;;;;;1999.90;999.90;;;16.50;99.90;;;;;;5033278;28;20052;-77
2022/06/13 09:53:38;;;;;;;1999.90;999.90;;;16.40;99.90;;;;;;5075097;28;20326;-78
2022/06/13 09:56:11;;;;;;;1999.90;999.90;;;16.50;99.90;;;;;;5073406;28;20043;-77
2022/06/13 09:59:14;;;;;;;1999.90;999.90;;;17.10;99.90;;;;;;5072263;28;20509;-76
2022/06/13 10:01:51;;;;;;;1999.90;999.90;;;17.40;99.90;;;;;;5008218;28;20052;-77
2022/06/13 10:04:44;;;;;;;1999.90;999.90;;;17.60;99.90;;;;;;5081244;28;20405;-78
2022/06/13 10:07:19;;;;;;;1999.90;999.90;;;17.30;99.90;;;;;;5080051;28;20549;-77
2022/06/13 10:09:44;;;;;;;1999.90;999.90;;;17.40;99.90;;;;;;5081288;28;20072;-78
2022/06/13 10:12:13;;;;;;;1999.90;999.90;;;17.80;99.90;;;;;;5070606;28;20059;-77
2022/06/13 10:15:00;;;;;;;1999.90;999.90;;;18.50;99.90;;;;;;5066627;28;20126;-78
2022/06/13 10:17:49;;;;;;;1999.90;999.90;;;19.10;99.90;;;;;;5086146;28;20046;-77
2022/06/13 10:20:56;;;;;;;1999.90;999.90;;;19.70;99.90;;;;;;5079361;28;20067;-78
2022/06/13 10:23:54;;;;;;;1999.90;999.90;;;19.50;99.80;;;;;;4992085;28;20035;-78
2022/06/13 10:26:25;;;;;;;1999.90;999.90;;;19.20;99.90;;;;;;4993075;28;20057;-77
2022/06/13 10:29:08;;;;;;;1999.90;999.90;;;19.40;99.70;;;;;;4994641;28;20054;-78
2022/06/13 10:32:03;;;;;;;1999.90;999.90;;;19.40;98.70;;;;;;4999045;28;20117;-78
2022/06/13 10:34:42;;;;;;;1999.90;999.90;;;19.00;98.40;;;;;;4980651;28;20050;-78
2022/06/13 10:37:19;;;;;;;1999.90;999.90;;;19.20;98.70;;;;;;4998967;28;20140;-77
2022/06/13 10:39:47;;;;;;;1999.90;999.90;;;19.60;99.70;;;;;;4979040;28;20685;-77
2022/06/13 10:42:18;;;;;;;1999.90;999.90;;;19.90;98.40;;;;;;5007403;28;20150;-78
2022/06/13 10:44:44;;;;;;;1999.90;999.90;;;19.70;96.80;;;;;;4986362;28;20116;-78
2022/06/13 10:47:23;;;;;;;1999.90;999.90;;;19.40;96.50;;;;;;5013023;28;20047;-78
2022/06/13 10:50:13;;;;;;;1999.90;999.90;;;19.10;95.00;;;;;;5080625;28;20043;-78
2022/06/13 10:52:43;;;;;;;1999.90;999.90;;;18.90;96.10;;;;;;5048091;28;20056;-77
2022/06/13 10:55:13;;;;;;;1999.90;999.90;;;19.20;97.30;;;;;;5075830;28;20059;-77
2022/06/13 10:57:43;;;;;;;1999.90;999.90;;;19.30;95.70;;;;;;5086465;28;20052;-77
2022/06/13 11:00:18;;;;;;;1999.90;999.90;;;19.20;94.90;;;;;;5081774;28;20041;-76
2022/06/13 11:02:44;;;;;;;1999.90;999.90;;;18.80;92.70;;;;;;5083642;28;20040;-77
2022/06/13 11:05:23;;;;;;;1999.90;999.90;;;18.30;92.30;;;;;;5062117;28;20044;-77
2022/06/13 11:07:58;;;;;;;1999.90;999.90;;;18.00;94.10;;;;;;5049826;28;20063;-78
2022/06/13 11:10:35;;;;;;;1999.90;999.90;;;17.90;94.90;;;;;;5057111;28;20100;-77
2022/06/13 11:13:15;;;;;;;1999.90;999.90;;;17.80;96.00;;;;;;5068622;28;20039;-77
2022/06/13 11:24:40;;;;;;;1999.90;999.90;;;18.40;96.30;;;;;;5054296;28;20056;-78
2022/06/13 11:30:27;;;;;;;1999.90;999.90;;;18.20;96.10;;;;;;5053580;28;20056;-78
2022/06/13 11:33:27;;;;;;;1999.90;999.90;;;18.30;96.80;;;;;;5081939;28;20412;-78
2022/06/13 11:36:07;;;;;;;1999.90;999.90;;;18.90;97.20;;;;;;5053292;28;20488;-77
2022/06/13 11:38:50;;;;;;;1999.90;999.90;;;19.70;95.80;;;;;;5084973;28;20075;-74
2022/06/13 11:41:35;;;;;;;1999.90;999.90;;;19.60;91.90;;;;;;5085789;28;20116;-78
2022/06/13 11:44:10;;;;;;;1999.90;999.90;;;19.10;92.60;;;;;;5086983;28;20036;-78
2022/06/13 11:46:55;;;;;;;1999.90;999.90;;;19.00;94.20;;;;;;5063381;28;20089;-77
2022/06/13 11:49:32;;;;;;;1999.90;999.90;;;19.50;94.20;;;;;;5085541;28;20115;-77
2022/06/13 11:52:10;;;;;;;1999.90;999.90;;;20.00;94.60;;;;;;5064900;28;20486;-78
2022/06/13 11:54:48;;;;;;;1999.90;999.90;;;20.50;93.90;;;;;;5084080;28;20048;-77
2022/06/13 11:57:32;;;;;;;1999.90;999.90;;;20.90;94.80;;;;;;5085981;28;20035;-77
2022/06/13 12:00:04;;;;;;;1999.90;999.90;;;20.80;91.80;;;;;;5054489;28;20052;-77
2022/06/13 12:02:39;;;;;;;1999.90;999.90;;;20.10;92.00;;;;;;5079166;28;20105;-77
2022/06/13 12:05:24;;;;;;;1999.90;999.90;;;19.50;92.60;;;;;;5083500;28;20505;-77
2022/06/13 12:08:19;;;;;;;1999.90;999.90;;;19.00;93.40;;;;;;5081458;28;20145;-76
2022/06/13 12:11:21;;;;;;;1999.90;999.90;;;18.50;94.50;;;;;;5055189;28;20062;-77
2022/06/13 12:13:49;;;;;;;1999.90;999.90;;;18.10;95.50;;;;;;5084346;28;20115;-77
2022/06/13 12:16:44;;;;;;;1999.90;999.90;;;17.80;95.80;;;;;;5063006;28;20075;-78
2022/06/13 12:19:25;;;;;;;1999.90;999.90;;;17.80;97.00;;;;;;5077689;28;20044;-77
2022/06/13 12:22:07;;;;;;;1999.90;999.90;;;17.60;97.00;;;;;;5065577;28;20040;-76
2022/06/13 12:25:01;;;;;;;1999.90;999.90;;;17.50;97.40;;;;;;5068929;28;20494;-76
2022/06/13 12:27:36;;;;;;;1999.90;999.90;;;17.40;96.30;;;;;;5081774;28;20285;-76
2022/06/13 12:30:07;;;;;;;1999.90;999.90;;;17.40;96.30;;;;;;5082461;28;20048;-74
2022/06/13 12:33:07;;;;;;;1999.90;999.90;;;17.80;96.60;;;;;;5087453;28;20051;-77
2022/06/13 12:35:52;;;;;;;1999.90;999.90;;;18.30;97.10;;;;;;5080983;28;20048;-77
2022/06/13 12:38:28;;;;;;;1999.90;999.90;;;18.40;96.60;;;;;;5059838;28;20046;-77
2022/06/13 12:40:59;;;;;;;1999.90;999.90;;;18.30;97.50;;;;;;5082803;28;20383;-77
2022/06/13 12:43:28;;;;;;;1999.90;999.90;;;18.60;98.80;;;;;;5046939;28;20515;-77
2022/06/13 12:46:30;;;;;;;1999.90;999.90;;;18.80;98.40;;;;;;5079443;28;20067;-77
2022/06/13 12:49:11;;;;;;;1999.90;999.90;;;19.00;96.70;;;;;;5074316;28;20044;-76
2022/06/13 12:51:58;;;;;;;1999.90;999.90;;;18.90;96.30;;;;;;5068668;28;20032;-76
2022/06/13 12:55:12;;;;;;;1999.90;999.90;;;18.60;94.40;;;;;;5069133;28;20087;-77
2022/06/13 12:57:41;;;;;;;1999.90;999.90;;;18.10;94.40;;;;;;4998121;28;20439;-77
2022/06/13 13:00:20;;;;;;;1999.90;999.90;;;17.70;95.20;;;;;;5084223;28;20071;-78
2022/06/13 13:03:07;;;;;;;1999.90;999.90;;;17.60;97.30;;;;;;5063315;28;20036;-77